Time;durP1;ratioP1;P1;durP2;ratioP2;P2;SDS_P1;SDS_P2;PMS_P1;PMS_P2;Temp;Humidity;BMP_temperature;BMP_pressure;BME280_temperature;BME280_humidity;BME280_pressure;Samples;Min_cycle;Max_cycle;Signal;HPM_P1;HPM_P2
2023/05/13 00:00:04;;;;;;;33.17;29.58;;;18.00;99.90;;;;;;5052465;28;20474;-69
2023/05/13 00:02:30;;;;;;;34.10;29.20;;;18.00;99.90;;;;;;5052699;28;20025;-70
2023/05/13 00:04:56;;;;;;;37.67;29.90;;;18.00;99.90;;;;;;5052669;28;20035;-69
2023/05/13 00:07:21;;;;;;;32.55;29.23;;;17.90;99.90;;;;;;5051997;28;20079;-69
2023/05/13 00:09:47;;;;;;;34.45;30.63;;;17.90;99.90;;;;;;5052386;28;20032;-70
2023/05/13 00:12:12;;;;;;;34.58;30.10;;;17.90;99.90;;;;;;5052621;28;20095;-69
2023/05/13 00:14:38;;;;;;;32.83;28.63;;;17.90;99.90;;;;;;5052493;28;20025;-69
2023/05/13 00:17:04;;;;;;;37.92;30.90;;;17.90;99.90;;;;;;5052692;28;20057;-70
2023/05/13 00:19:30;;;;;;;35.58;31.52;;;17.90;99.90;;;;;;5056476;28;20031;-69
2023/05/13 00:21:56;;;;;;;37.55;31.23;;;17.80;99.90;;;;;;5056542;28;20083;-70
2023/05/13 00:24:22;;;;;;;36.58;31.77;;;17.80;99.90;;;;;;5056151;28;20025;-69
2023/05/13 00:26:47;;;;;;;35.20;30.67;;;17.80;99.90;;;;;;5056378;28;20029;-69
2023/05/13 00:29:13;;;;;;;36.25;30.88;;;17.80;99.90;;;;;;5056304;28;20382;-68
2023/05/13 00:31:38;;;;;;;37.47;31.77;;;17.80;99.90;;;;;;5056424;28;20025;-69
2023/05/13 00:34:04;;;;;;;38.10;32.67;;;17.80;99.90;;;;;;5056174;28;20027;-69
2023/05/13 00:36:30;;;;;;;35.78;29.67;;;17.80;99.90;;;;;;5056356;28;20029;-68
2023/05/13 00:38:56;;;;;;;38.80;32.35;;;17.70;99.90;;;;;;5056197;28;20083;-69
2023/05/13 00:41:22;;;;;;;35.05;31.27;;;17.70;99.90;;;;;;5056318;28;20063;-69
2023/05/13 00:43:47;;;;;;;36.70;31.08;;;17.70;99.90;;;;;;5056446;28;20013;-70
2023/05/13 00:46:14;;;;;;;36.35;30.85;;;17.70;99.90;;;;;;5056295;28;20423;-69
2023/05/13 00:48:40;;;;;;;36.28;29.98;;;17.70;99.90;;;;;;5055939;28;20025;-69
2023/05/13 00:51:06;;;;;;;32.83;29.38;;;17.70;99.90;;;;;;5055975;28;20029;-69
2023/05/13 00:53:32;;;;;;;33.90;30.35;;;17.60;99.90;;;;;;5055499;28;20021;-69
2023/05/13 00:55:58;;;;;;;36.47;31.23;;;17.60;99.90;;;;;;5055960;28;20029;-70
2023/05/13 00:58:24;;;;;;;33.75;30.08;;;17.60;99.90;;;;;;5055924;28;20593;-69
2023/05/13 01:01:01;;;;;;;33.08;29.50;;;17.60;99.90;;;;;;5055696;28;20041;-70
2023/05/13 01:03:46;;;;;;;33.55;30.05;;;17.50;99.90;;;;;;5055646;28;20053;-70
2023/05/13 01:06:22;;;;;;;34.63;29.33;;;17.50;99.90;;;;;;5055375;28;20067;-69
2023/05/13 01:09:06;;;;;;;31.10;27.98;;;17.50;99.90;;;;;;5055980;28;20025;-69
2023/05/13 01:11:38;;;;;;;33.05;29.20;;;17.50;99.90;;;;;;5055517;28;20033;-69
2023/05/13 01:14:32;;;;;;;33.33;29.85;;;17.50;99.90;;;;;;5055524;28;20414;-69
2023/05/13 01:17:04;;;;;;;32.28;28.77;;;17.50;99.90;;;;;;5054697;28;20040;-69
2023/05/13 01:19:45;;;;;;;31.40;28.23;;;17.50;99.90;;;;;;5055328;28;20048;-69
2023/05/13 01:22:11;;;;;;;30.88;27.48;;;17.40;99.90;;;;;;5054977;28;20116;-68
2023/05/13 01:24:37;;;;;;;32.05;27.55;;;17.40;99.90;;;;;;5055341;28;20096;-69
2023/05/13 01:27:03;;;;;;;30.90;27.35;;;17.40;99.90;;;;;;5055269;28;20123;-69
2023/05/13 01:29:29;;;;;;;29.38;26.33;;;17.40;99.90;;;;;;5054535;28;20182;-69
2023/05/13 01:31:57;;;;;;;29.50;26.40;;;17.40;99.90;;;;;;5055155;28;20103;-69
2023/05/13 01:34:24;;;;;;;30.33;25.17;;;17.30;99.90;;;;;;5055158;28;20040;-69
2023/05/13 01:36:50;;;;;;;26.88;23.92;;;17.30;99.90;;;;;;5053549;28;20480;-69
2023/05/13 01:39:18;;;;;;;29.00;24.77;;;17.40;99.90;;;;;;5054967;28;20112;-69
2023/05/13 01:41:44;;;;;;;26.70;23.92;;;17.40;99.90;;;;;;5054767;28;20103;-69
2023/05/13 01:44:09;;;;;;;24.92;22.25;;;17.30;99.90;;;;;;5055043;28;20442;-69
2023/05/13 01:46:37;;;;;;;27.02;22.10;;;17.30;99.90;;;;;;5054213;28;20359;-69
2023/05/13 01:49:03;;;;;;;26.48;21.90;;;17.30;99.90;;;;;;5054974;28;20028;-69
2023/05/13 01:51:30;;;;;;;24.45;20.88;;;17.30;99.90;;;;;;5054593;28;20017;-69
2023/05/13 01:53:56;;;;;;;21.13;18.88;;;17.30;99.90;;;;;;5055110;28;20071;-70
2023/05/13 01:56:22;;;;;;;21.67;18.27;;;17.40;99.90;;;;;;5054681;28;20060;-69
2023/05/13 01:58:48;;;;;;;21.90;19.35;;;17.30;99.90;;;;;;5054736;28;20055;-69
2023/05/13 02:01:13;;;;;;;19.55;17.38;;;17.30;99.90;;;;;;5054645;28;20524;-69
2023/05/13 02:03:39;;;;;;;21.55;18.77;;;17.30;99.90;;;;;;5054308;28;20505;-69
2023/05/13 02:06:05;;;;;;;20.17;18.17;;;17.30;99.90;;;;;;5054474;28;20095;-69
2023/05/13 02:08:30;;;;;;;18.30;16.50;;;17.30;99.90;;;;;;5054693;28;20029;-69
2023/05/13 02:10:57;;;;;;;18.88;16.85;;;17.20;99.90;;;;;;5054451;28;20021;-69
2023/05/13 02:13:23;;;;;;;18.00;16.30;;;17.20;99.90;;;;;;5054539;28;20079;-69
2023/05/13 02:15:49;;;;;;;19.02;17.05;;;17.20;99.90;;;;;;5054303;28;20082;-70
2023/05/13 02:18:15;;;;;;;17.75;15.95;;;17.20;99.90;;;;;;5054070;28;20025;-70
2023/05/13 02:20:40;;;;;;;18.50;16.15;;;17.20;99.90;;;;;;5054214;28;20037;-69
2023/05/13 02:23:06;;;;;;;17.42;15.57;;;17.20;99.90;;;;;;5054256;28;20021;-69
2023/05/13 02:25:32;;;;;;;16.27;14.68;;;17.20;99.90;;;;;;5054241;28;20031;-69
2023/05/13 02:27:58;;;;;;;17.40;14.63;;;17.20;99.90;;;;;;5054051;28;20108;-69
2023/05/13 02:30:25;;;;;;;17.63;14.93;;;17.20;99.90;;;;;;5054136;28;20025;-69
2023/05/13 02:32:52;;;;;;;17.25;14.15;;;17.20;99.90;;;;;;5053642;28;20104;-70
2023/05/13 02:35:18;;;;;;;16.08;14.48;;;17.10;99.90;;;;;;5054046;28;20051;-70
2023/05/13 02:37:45;;;;;;;16.25;14.50;;;17.10;99.90;;;;;;5053933;28;20025;-69
2023/05/13 02:40:11;;;;;;;16.55;14.38;;;17.10;99.90;;;;;;5053734;28;20029;-70
2023/05/13 02:42:36;;;;;;;15.63;14.10;;;17.10;99.90;;;;;;5053936;28;20059;-70
2023/05/13 02:45:02;;;;;;;14.65;13.25;;;17.10;99.90;;;;;;5053982;28;20048;-70
2023/05/13 02:47:28;;;;;;;13.73;12.32;;;17.10;99.90;;;;;;5053330;28;20779;-69
2023/05/13 02:49:56;;;;;;;14.00;12.60;;;17.10;99.80;;;;;;5053753;28;20027;-69
2023/05/13 02:52:22;;;;;;;14.63;12.00;;;17.10;99.80;;;;;;5053731;28;20104;-70
2023/05/13 02:54:47;;;;;;;13.13;11.75;;;17.10;99.60;;;;;;5053693;28;20441;-70
2023/05/13 02:57:13;;;;;;;15.82;12.05;;;17.10;99.40;;;;;;5052850;28;20029;-69
2023/05/13 02:59:39;;;;;;;13.18;10.52;;;17.10;99.20;;;;;;5036475;28;20068;-70
2023/05/13 03:02:04;;;;;;;12.20;10.68;;;17.10;99.10;;;;;;5033500;28;20064;-69
2023/05/13 03:04:30;;;;;;;12.90;10.75;;;17.00;98.80;;;;;;5032615;28;20033;-70
2023/05/13 03:06:55;;;;;;;13.25;11.45;;;17.10;98.70;;;;;;5033320;28;20104;-69
2023/05/13 03:09:21;;;;;;;11.38;10.18;;;17.10;98.70;;;;;;5033628;28;20478;-69
2023/05/13 03:11:47;;;;;;;11.23;10.02;;;17.00;98.60;;;;;;5033265;28;20067;-69
2023/05/13 03:14:13;;;;;;;10.18;9.18;;;17.10;98.30;;;;;;5033106;28;20037;-69
2023/05/13 03:16:38;;;;;;;10.93;9.82;;;17.00;98.40;;;;;;5032759;28;20052;-69
2023/05/13 03:19:04;;;;;;;10.65;9.50;;;17.00;98.20;;;;;;5033307;28;20028;-69
2023/05/13 03:21:30;;;;;;;9.93;9.02;;;17.00;97.70;;;;;;5033406;28;20088;-69
2023/05/13 03:23:55;;;;;;;9.63;8.45;;;17.00;97.60;;;;;;5033200;28;20021;-69
2023/05/13 03:26:21;;;;;;;10.85;8.60;;;17.00;97.30;;;;;;5033155;28;20034;-69
2023/05/13 03:28:47;;;;;;;9.45;8.20;;;17.00;97.40;;;;;;5033085;28;20096;-70
2023/05/13 03:31:12;;;;;;;9.02;8.13;;;16.90;97.40;;;;;;5032880;28;20026;-70
2023/05/13 03:33:38;;;;;;;10.27;8.23;;;16.90;97.00;;;;;;5033087;28;20057;-69
2023/05/13 03:36:04;;;;;;;12.48;8.52;;;16.90;97.20;;;;;;5033105;28;20025;-69
2023/05/13 03:38:30;;;;;;;11.75;9.15;;;16.90;97.00;;;;;;5033161;28;20128;-69
2023/05/13 03:40:56;;;;;;;9.63;8.35;;;16.90;96.60;;;;;;5032858;28;20368;-69
2023/05/13 03:43:21;;;;;;;9.43;8.00;;;16.90;96.50;;;;;;5032977;28;20418;-69
2023/05/13 03:45:49;;;;;;;11.40;8.90;;;16.90;96.70;;;;;;5032621;28;20021;-69
2023/05/13 03:48:14;;;;;;;9.45;8.48;;;16.90;96.40;;;;;;5031599;28;20025;-69
2023/05/13 03:50:40;;;;;;;10.85;9.00;;;16.90;96.50;;;;;;5032804;28;20576;-69
2023/05/13 03:53:06;;;;;;;10.05;8.40;;;16.90;96.40;;;;;;5032144;28;20498;-69
2023/05/13 03:55:32;;;;;;;9.60;8.65;;;16.90;96.40;;;;;;5033173;28;20472;-70
2023/05/13 03:57:57;;;;;;;9.70;8.38;;;16.90;96.30;;;;;;5032565;28;20018;-69
2023/05/13 04:00:23;;;;;;;9.95;8.77;;;16.90;96.20;;;;;;5032348;28;20042;-68
2023/05/13 04:02:49;;;;;;;9.73;8.77;;;16.90;96.20;;;;;;5032813;28;20072;-69
2023/05/13 04:05:15;;;;;;;9.43;8.52;;;16.90;96.30;;;;;;5032867;28;20021;-69
2023/05/13 04:07:40;;;;;;;13.45;9.80;;;16.90;96.40;;;;;;5032806;28;20473;-69
2023/05/13 04:10:07;;;;;;;12.25;9.48;;;16.90;96.60;;;;;;5032678;28;20032;-69
2023/05/13 04:12:33;;;;;;;11.23;9.05;;;16.90;96.70;;;;;;5032840;28;20033;-70
2023/05/13 04:14:58;;;;;;;10.70;9.48;;;16.80;96.70;;;;;;5032174;28;20418;-69
2023/05/13 04:17:24;;;;;;;9.43;8.52;;;16.80;96.70;;;;;;5032761;28;20453;-69
2023/05/13 04:19:53;;;;;;;9.80;7.78;;;16.90;96.70;;;;;;5032614;28;20035;-69
2023/05/13 04:22:20;;;;;;;12.43;8.43;;;16.80;96.50;;;;;;5032873;28;20017;-69
2023/05/13 04:24:46;;;;;;;9.00;7.72;;;16.80;96.40;;;;;;5033022;28;20371;-69
2023/05/13 04:27:11;;;;;;;8.82;7.70;;;16.80;96.40;;;;;;5032340;28;20553;-69
2023/05/13 04:29:37;;;;;;;8.38;7.57;;;16.90;96.10;;;;;;5030984;28;20060;-69
2023/05/13 04:32:03;;;;;;;8.75;7.70;;;16.80;96.10;;;;;;5032490;28;20473;-69
2023/05/13 04:34:28;;;;;;;8.35;7.55;;;16.80;96.20;;;;;;5032696;28;20037;-69
2023/05/13 04:36:54;;;;;;;8.32;7.20;;;16.80;96.10;;;;;;5032549;28;20045;-69
2023/05/13 04:39:19;;;;;;;7.55;6.40;;;16.80;95.90;;;;;;5032196;28;20386;-69
2023/05/13 04:41:45;;;;;;;9.00;6.90;;;16.90;95.60;;;;;;5032535;28;20033;-69
2023/05/13 04:44:10;;;;;;;9.98;6.75;;;16.80;95.50;;;;;;5032029;28;20029;-69
2023/05/13 04:46:39;;;;;;;9.55;6.75;;;16.90;95.60;;;;;;5032504;28;20021;-70
2023/05/13 04:49:05;;;;;;;8.30;6.03;;;16.90;95.40;;;;;;5032284;28;20033;-69
2023/05/13 04:51:31;;;;;;;10.80;6.82;;;16.80;95.60;;;;;;5032463;28;20084;-69
2023/05/13 04:53:57;;;;;;;6.68;5.85;;;16.80;95.40;;;;;;5032231;28;20033;-69
2023/05/13 04:56:23;;;;;;;7.50;6.55;;;16.80;95.50;;;;;;5032504;28;20022;-70
2023/05/13 04:58:49;;;;;;;7.88;6.70;;;16.80;95.50;;;;;;5031967;28;20494;-69
2023/05/13 05:01:14;;;;;;;7.35;5.88;;;16.80;95.50;;;;;;5031954;28;20492;-69
2023/05/13 05:03:40;;;;;;;9.30;6.20;;;16.90;95.80;;;;;;5032354;28;20494;-70
2023/05/13 05:06:06;;;;;;;9.43;6.32;;;16.80;95.60;;;;;;5034456;28;20079;-69
2023/05/13 05:08:32;;;;;;;8.02;6.15;;;16.80;95.90;;;;;;5035303;28;20387;-69
2023/05/13 05:10:59;;;;;;;8.65;6.35;;;16.80;95.80;;;;;;5035022;28;20018;-70
2023/05/13 05:13:25;;;;;;;9.57;6.13;;;16.90;95.90;;;;;;5035380;28;20056;-69
2023/05/13 05:15:50;;;;;;;8.20;6.05;;;16.80;95.80;;;;;;5035450;28;20060;-69
2023/05/13 05:18:16;;;;;;;8.27;6.03;;;16.80;95.90;;;;;;5035684;28;20482;-70
2023/05/13 05:20:41;;;;;;;6.95;5.80;;;16.90;95.90;;;;;;5034146;28;20034;-70
2023/05/13 05:23:09;;;;;;;6.75;6.15;;;16.90;95.80;;;;;;5035566;28;20022;-70
2023/05/13 05:25:35;;;;;;;7.25;5.97;;;16.90;95.80;;;;;;5035438;28;20108;-70
2023/05/13 05:28:03;;;;;;;7.82;5.40;;;16.90;95.90;;;;;;5035205;28;20152;-70
2023/05/13 05:30:31;;;;;;;6.10;5.50;;;16.90;95.80;;;;;;5045785;28;20033;-70
2023/05/13 05:32:57;;;;;;;8.48;5.53;;;16.90;95.80;;;;;;5053690;28;20025;-70
2023/05/13 05:35:23;;;;;;;7.88;5.60;;;16.90;95.60;;;;;;5053145;28;20025;-70
2023/05/13 05:37:48;;;;;;;7.07;6.00;;;17.00;95.60;;;;;;5054179;28;20379;-69
2023/05/13 05:40:14;;;;;;;7.25;5.40;;;17.00;95.70;;;;;;5053324;28;20045;-71
2023/05/13 05:42:40;;;;;;;8.27;5.60;;;17.00;95.70;;;;;;5054164;28;20048;-69
2023/05/13 05:45:06;;;;;;;5.60;5.10;;;17.00;96.00;;;;;;5054828;28;20070;-69
2023/05/13 05:47:31;;;;;;;7.45;6.75;;;17.10;95.70;;;;;;5055027;28;20074;-68
2023/05/13 05:49:57;;;;;;;7.50;5.80;;;17.10;95.80;;;;;;5047840;28;20029;-69
2023/05/13 05:52:23;;;;;;;6.00;5.43;;;17.10;96.00;;;;;;5039399;28;20017;-69
2023/05/13 05:54:48;;;;;;;6.53;5.88;;;17.20;96.10;;;;;;5045638;28;20377;-69
2023/05/13 05:57:14;;;;;;;8.13;6.28;;;17.20;95.70;;;;;;5038672;28;20037;-69
2023/05/13 05:59:39;;;;;;;7.43;5.47;;;17.20;95.70;;;;;;5043021;28;20083;-69
2023/05/13 06:02:06;;;;;;;6.47;5.57;;;17.30;95.90;;;;;;5034583;28;20067;-69
2023/05/13 06:04:31;;;;;;;7.78;5.93;;;17.30;95.70;;;;;;5051506;28;20037;-69
2023/05/13 06:06:57;;;;;;;6.47;5.82;;;17.40;95.40;;;;;;5049402;28;20036;-69
2023/05/13 06:09:23;;;;;;;7.00;5.88;;;17.40;95.10;;;;;;5045685;28;20020;-69
2023/05/13 06:11:48;;;;;;;8.23;6.47;;;17.40;95.10;;;;;;5044440;28;20067;-69
2023/05/13 06:14:16;;;;;;;6.55;5.88;;;17.50;95.00;;;;;;5047465;28;20025;-68
2023/05/13 06:16:41;;;;;;;7.75;5.95;;;17.50;94.90;;;;;;5036218;28;20490;-68
2023/05/13 06:19:07;;;;;;;8.65;6.20;;;17.60;95.30;;;;;;5044144;28;20040;-69
2023/05/13 06:21:33;;;;;;;9.40;5.75;;;17.60;95.30;;;;;;5041782;28;20364;-68
2023/05/13 06:23:59;;;;;;;6.63;5.90;;;17.70;95.30;;;;;;5046664;28;20033;-68
2023/05/13 06:26:25;;;;;;;6.70;6.00;;;17.70;95.10;;;;;;5039059;28;20486;-68
2023/05/13 06:28:51;;;;;;;11.82;6.70;;;17.80;94.50;;;;;;5033366;28;20036;-68
2023/05/13 06:31:16;;;;;;;7.20;5.57;;;17.90;94.50;;;;;;5045903;28;20033;-69
2023/05/13 06:33:42;;;;;;;7.35;6.65;;;17.90;94.60;;;;;;5044472;28;20491;-69
2023/05/13 06:36:08;;;;;;;7.90;6.00;;;18.00;94.50;;;;;;5032973;28;20482;-69
2023/05/13 06:38:34;;;;;;;8.00;5.80;;;18.00;94.40;;;;;;5040554;28;20024;-68
2023/05/13 06:41:00;;;;;;;8.38;6.45;;;18.10;94.70;;;;;;5061280;28;20037;-68
2023/05/13 06:43:26;;;;;;;7.15;6.20;;;18.10;94.30;;;;;;5036014;28;20018;-69
2023/05/13 06:45:51;;;;;;;9.95;6.35;;;18.20;94.50;;;;;;5035923;28;20099;-69
2023/05/13 06:48:17;;;;;;;10.90;6.43;;;18.20;94.50;;;;;;5057391;28;20018;-68
2023/05/13 06:50:42;;;;;;;9.82;5.43;;;18.20;94.40;;;;;;5045657;28;20037;-69
2023/05/13 06:53:10;;;;;;;10.25;6.10;;;18.30;94.30;;;;;;5038967;28;20022;-69
2023/05/13 06:55:40;;;;;;;7.22;5.85;;;18.30;94.30;;;;;;5044038;28;20037;-68
2023/05/13 06:58:09;;;;;;;8.88;5.88;;;18.40;93.90;;;;;;5037957;28;20150;-69
2023/05/13 07:00:37;;;;;;;6.93;6.18;;;18.50;93.70;;;;;;5039005;28;20120;-69
2023/05/13 07:03:03;;;;;;;6.53;5.82;;;18.50;93.50;;;;;;5034628;28;20105;-69
2023/05/13 07:05:29;;;;;;;8.63;6.60;;;18.60;93.90;;;;;;5035744;28;20033;-69
2023/05/13 07:07:55;;;;;;;6.20;5.60;;;18.60;94.10;;;;;;5032151;28;20020;-69
2023/05/13 07:10:20;;;;;;;8.80;6.20;;;18.70;94.20;;;;;;5035813;28;20389;-69
2023/05/13 07:12:46;;;;;;;10.15;6.50;;;18.70;94.30;;;;;;5037627;28;20030;-69
2023/05/13 07:15:12;;;;;;;6.60;6.00;;;18.80;94.10;;;;;;5039150;28;20432;-69
2023/05/13 07:17:38;;;;;;;6.63;5.68;;;18.80;94.30;;;;;;5039979;28;20030;-69
2023/05/13 07:20:04;;;;;;;12.25;6.93;;;18.90;94.40;;;;;;5041276;28;20112;-69
2023/05/13 07:22:29;;;;;;;9.75;6.45;;;19.00;93.90;;;;;;5033399;28;20107;-69
2023/05/13 07:24:55;;;;;;;8.35;6.38;;;19.10;93.50;;;;;;5043770;28;20375;-69
2023/05/13 07:27:21;;;;;;;17.42;6.82;;;19.10;93.40;;;;;;5043831;28;20065;-70
2023/05/13 07:29:47;;;;;;;7.72;6.07;;;19.10;93.80;;;;;;5038695;28;20056;-69
2023/05/13 07:32:13;;;;;;;13.77;6.85;;;19.10;93.60;;;;;;5042390;28;20031;-70
2023/05/13 07:34:38;;;;;;;8.35;6.22;;;19.20;93.70;;;;;;5040309;28;20024;-69
2023/05/13 07:37:04;;;;;;;6.43;5.72;;;19.20;93.70;;;;;;5050210;28;20470;-70
2023/05/13 07:39:30;;;;;;;8.73;6.53;;;19.20;93.80;;;;;;5043080;28;20048;-69
2023/05/13 07:41:55;;;;;;;9.07;5.40;;;19.30;93.70;;;;;;5039899;28;20107;-69
2023/05/13 07:44:21;;;;;;;8.35;6.00;;;19.30;94.20;;;;;;5046202;28;20021;-69
2023/05/13 07:46:48;;;;;;;7.15;6.10;;;19.40;93.90;;;;;;5038277;28;20025;-69
2023/05/13 07:49:13;;;;;;;6.68;5.75;;;19.40;93.80;;;;;;5037637;28;20091;-69
2023/05/13 07:51:40;;;;;;;14.15;6.13;;;19.40;94.10;;;;;;5040242;28;20417;-69
2023/05/13 07:54:05;;;;;;;8.73;4.53;;;19.50;94.30;;;;;;5036934;28;20016;-69
2023/05/13 07:56:31;;;;;;;8.65;4.43;;;19.50;94.90;;;;;;5042306;28;20029;-68
2023/05/13 07:58:57;;;;;;;10.25;5.68;;;19.50;95.10;;;;;;5037979;28;20364;-68
2023/05/13 08:01:22;;;;;;;7.85;6.70;;;19.50;94.80;;;;;;5042558;28;20025;-68
2023/05/13 08:03:49;;;;;;;12.05;6.30;;;19.60;94.40;;;;;;5041374;28;20029;-68
2023/05/13 08:06:15;;;;;;;6.78;5.47;;;19.70;94.00;;;;;;5044205;28;20081;-68
2023/05/13 08:08:41;;;;;;;7.40;5.85;;;19.70;94.30;;;;;;5039506;28;20458;-68
2023/05/13 08:11:07;;;;;;;9.13;7.22;;;19.70;94.50;;;;;;5046790;28;20021;-68
2023/05/13 08:13:33;;;;;;;8.43;6.10;;;19.70;93.90;;;;;;5040816;28;20128;-68
2023/05/13 08:16:02;;;;;;;13.07;5.95;;;19.80;94.20;;;;;;5037546;28;20022;-69
2023/05/13 08:18:28;;;;;;;10.63;7.47;;;19.80;94.40;;;;;;5042430;28;20025;-68
2023/05/13 08:20:54;;;;;;;9.98;6.88;;;19.90;93.90;;;;;;5036769;28;20041;-69
2023/05/13 08:23:19;;;;;;;7.72;6.03;;;19.90;93.80;;;;;;5048300;28;20041;-68
2023/05/13 08:25:45;;;;;;;10.25;7.32;;;20.00;94.60;;;;;;5035989;28;20091;-69
2023/05/13 08:28:11;;;;;;;9.75;7.32;;;20.00;94.10;;;;;;5033311;28;20228;-69
2023/05/13 08:30:39;;;;;;;15.27;7.82;;;20.00;93.90;;;;;;5043219;28;20108;-69
2023/05/13 08:33:05;;;;;;;7.93;6.97;;;20.00;93.50;;;;;;5034354;28;20036;-68
2023/05/13 08:35:31;;;;;;;9.80;5.97;;;20.10;93.60;;;;;;5038918;28;20419;-69
2023/05/13 08:37:56;;;;;;;9.40;6.63;;;20.10;93.80;;;;;;5044784;28;20017;-69
2023/05/13 08:40:22;;;;;;;8.15;6.70;;;20.20;93.70;;;;;;5052294;28;20037;-69
2023/05/13 08:42:51;;;;;;;9.82;7.18;;;20.20;93.70;;;;;;5049825;28;20479;-69
2023/05/13 08:45:20;;;;;;;11.43;6.72;;;20.20;93.70;;;;;;5046159;28;20029;-69
2023/05/13 08:47:49;;;;;;;11.40;9.23;;;20.30;93.80;;;;;;5043501;28;20040;-68
2023/05/13 08:50:16;;;;;;;9.35;7.53;;;20.30;93.00;;;;;;5049078;28;20092;-68
2023/05/13 08:52:42;;;;;;;9.25;6.90;;;20.40;93.40;;;;;;5037481;28;20172;-68
2023/05/13 08:55:08;;;;;;;10.10;8.45;;;20.40;93.90;;;;;;5041508;28;20021;-68
2023/05/13 08:57:35;;;;;;;10.80;7.22;;;20.40;93.30;;;;;;5043866;28;20112;-68
2023/05/13 09:00:01;;;;;;;10.30;6.63;;;20.50;93.70;;;;;;5033928;28;20050;-67
2023/05/13 09:02:26;;;;;;;11.32;7.20;;;20.40;93.50;;;;;;5048262;28;20070;-68
2023/05/13 09:04:54;;;;;;;8.82;6.85;;;20.50;93.40;;;;;;5044072;28;20480;-68
2023/05/13 09:07:20;;;;;;;14.45;8.68;;;20.50;93.60;;;;;;5039071;28;20474;-68
2023/05/13 09:09:46;;;;;;;9.05;7.55;;;20.50;92.90;;;;;;5040704;28;20040;-68
2023/05/13 09:12:31;;;;;;;9.35;6.82;;;20.60;92.60;;;;;;5046768;28;20525;-67
2023/05/13 09:14:57;;;;;;;15.13;6.95;;;20.60;93.30;;;;;;5046466;28;20035;-67
2023/05/13 09:17:23;;;;;;;9.13;5.32;;;20.60;93.20;;;;;;5038181;28;20021;-69
2023/05/13 09:19:48;;;;;;;9.32;8.18;;;20.60;93.50;;;;;;5046846;28;20490;-68
2023/05/13 09:22:17;;;;;;;8.77;5.57;;;20.60;93.40;;;;;;5036872;28;20356;-68
2023/05/13 09:24:53;;;;;;;8.65;6.03;;;20.60;93.60;;;;;;5042852;28;20025;-68
2023/05/13 09:27:34;;;;;;;14.15;6.90;;;20.60;93.70;;;;;;5050579;28;20017;-68
2023/05/13 09:30:00;;;;;;;10.23;8.73;;;20.60;93.60;;;;;;5048924;28;20055;-68
2023/05/13 09:32:26;;;;;;;7.93;6.93;;;20.70;93.20;;;;;;5037990;28;20478;-69
2023/05/13 09:34:51;;;;;;;8.77;7.68;;;20.70;93.40;;;;;;5046545;28;20064;-68
2023/05/13 09:37:17;;;;;;;6.97;6.03;;;20.70;93.30;;;;;;5043940;28;20045;-68
2023/05/13 09:39:43;;;;;;;10.05;6.57;;;20.70;93.70;;;;;;5046415;28;20029;-68
2023/05/13 09:42:18;;;;;;;14.13;9.65;;;20.70;93.90;;;;;;5045504;28;20095;-68
2023/05/13 09:44:45;;;;;;;9.38;7.78;;;20.80;93.00;;;;;;5041000;28;20159;-69
2023/05/13 09:47:12;;;;;;;12.40;7.38;;;20.80;93.20;;;;;;5040210;28;20033;-68
2023/05/13 09:49:40;;;;;;;8.75;7.90;;;20.80;93.70;;;;;;5042104;28;20028;-68
2023/05/13 09:52:10;;;;;;;11.07;8.65;;;20.80;94.00;;;;;;5048718;28;20036;-68
2023/05/13 09:54:36;;;;;;;11.45;8.70;;;20.80;93.70;;;;;;5052291;28;20021;-68
2023/05/13 09:57:02;;;;;;;15.18;10.13;;;20.80;94.40;;;;;;5048067;28;20164;-68
2023/05/13 09:59:34;;;;;;;14.38;8.48;;;20.80;93.50;;;;;;5034618;28;20065;-68
2023/05/13 10:02:02;;;;;;;12.23;9.38;;;20.90;94.10;;;;;;5042290;28;20048;-68
2023/05/13 10:04:29;;;;;;;11.30;10.10;;;20.90;94.80;;;;;;5051404;28;20025;-68
2023/05/13 10:06:57;;;;;;;10.60;8.85;;;20.90;94.50;;;;;;5044487;28;20425;-68
2023/05/13 10:09:25;;;;;;;17.98;9.63;;;20.80;93.40;;;;;;5043015;28;20021;-68
2023/05/13 10:11:52;;;;;;;13.98;9.70;;;20.80;93.60;;;;;;5043323;28;20104;-68
2023/05/13 10:14:18;;;;;;;12.65;8.10;;;20.90;93.30;;;;;;5043996;28;20028;-69
2023/05/13 10:16:46;;;;;;;10.43;9.13;;;20.90;94.20;;;;;;5046509;28;20032;-69
2023/05/13 10:19:12;;;;;;;13.32;10.45;;;20.90;93.20;;;;;;5057986;28;20091;-69
2023/05/13 10:21:38;;;;;;;11.20;8.70;;;20.90;93.20;;;;;;5044654;28;20033;-69
2023/05/13 10:24:05;;;;;;;8.93;7.95;;;20.90;94.10;;;;;;5050915;28;20033;-68
2023/05/13 10:26:32;;;;;;;12.57;10.10;;;21.00;94.60;;;;;;5046569;28;20509;-69
2023/05/13 10:28:58;;;;;;;12.27;10.52;;;21.00;94.10;;;;;;5042028;28;20139;-68
2023/05/13 10:31:26;;;;;;;14.77;10.88;;;20.90;93.50;;;;;;5037937;28;20063;-67
2023/05/13 10:33:52;;;;;;;11.48;6.90;;;21.00;93.80;;;;;;5048072;28;20021;-68
2023/05/13 10:36:53;;;;;;;11.27;7.80;;;20.90;94.90;;;;;;5063067;28;20036;-70
2023/05/13 10:39:49;;;;;;;12.65;9.70;;;21.00;95.10;;;;;;5045280;28;20045;-69
2023/05/13 10:42:38;;;;;;;12.88;10.52;;;21.00;94.40;;;;;;5043884;28;20025;-69
2023/05/13 10:45:04;;;;;;;11.95;8.38;;;21.00;94.40;;;;;;5043138;28;20478;-69
2023/05/13 10:47:34;;;;;;;14.30;9.63;;;21.00;95.00;;;;;;5037293;28;20078;-68
2023/05/13 10:50:21;;;;;;;12.13;10.68;;;21.00;94.80;;;;;;5052336;28;20099;-68
2023/05/13 10:52:47;;;;;;;9.23;8.32;;;21.00;93.70;;;;;;5056567;28;20036;-69
2023/05/13 10:55:18;;;;;;;12.48;8.93;;;21.00;94.50;;;;;;5046970;28;20033;-69
2023/05/13 10:58:11;;;;;;;12.57;8.57;;;21.00;94.60;;;;;;5032818;28;20063;-70
2023/05/13 11:00:41;;;;;;;12.00;9.40;;;21.00;94.70;;;;;;5039000;28;20785;-69
2023/05/13 11:03:24;;;;;;;12.23;10.65;;;21.00;93.70;;;;;;5050037;28;20025;-69
2023/05/13 11:06:18;;;;;;;12.05;10.80;;;21.10;93.00;;;;;;5054354;28;20035;-68
2023/05/13 11:08:45;;;;;;;10.52;9.43;;;21.10;92.90;;;;;;5054796;28;20073;-69
2023/05/13 11:11:20;;;;;;;13.30;10.73;;;21.10;93.30;;;;;;5050914;28;20055;-69
2023/05/13 11:13:52;;;;;;;15.05;9.95;;;21.10;93.50;;;;;;5042763;28;20021;-69
2023/05/13 11:16:18;;;;;;;15.13;9.73;;;21.10;93.60;;;;;;5041083;28;20067;-68
2023/05/13 11:18:43;;;;;;;11.40;9.50;;;21.10;93.80;;;;;;5046834;28;20021;-69
2023/05/13 11:21:09;;;;;;;17.23;9.05;;;21.10;94.00;;;;;;5031383;28;20041;-69
2023/05/13 11:24:17;;;;;;;14.80;9.98;;;21.10;94.40;;;;;;5047393;28;20485;-69
2023/05/13 11:26:55;;;;;;;15.13;10.57;;;21.10;94.40;;;;;;5045451;28;20041;-69
2023/05/13 11:29:32;;;;;;;18.15;10.57;;;21.10;94.50;;;;;;5034848;28;20112;-69
2023/05/13 11:31:59;;;;;;;15.07;11.02;;;21.10;94.40;;;;;;5048550;28;20533;-69
2023/05/13 11:34:27;;;;;;;15.15;11.70;;;21.10;94.20;;;;;;5049843;28;20048;-69
2023/05/13 11:37:09;;;;;;;16.85;11.85;;;21.10;93.90;;;;;;5031482;28;20029;-69
2023/05/13 11:39:38;;;;;;;13.30;11.60;;;21.10;94.10;;;;;;5038364;28;20088;-69
2023/05/13 11:42:09;;;;;;;18.98;11.70;;;21.10;94.40;;;;;;5040079;28;20029;-69
2023/05/13 11:44:35;;;;;;;11.45;8.75;;;21.10;94.80;;;;;;5049567;28;20025;-69
2023/05/13 11:47:04;;;;;;;16.23;9.50;;;21.10;94.90;;;;;;5046815;28;20029;-69
2023/05/13 11:49:41;;;;;;;16.38;10.82;;;21.10;94.90;;;;;;5059202;28;20021;-69
2023/05/13 11:52:15;;;;;;;16.13;10.68;;;21.20;95.00;;;;;;5064526;28;20044;-69
2023/05/13 11:54:52;;;;;;;19.65;12.57;;;21.20;95.20;;;;;;5049021;28;20398;-69
2023/05/13 11:57:26;;;;;;;18.00;11.77;;;21.20;95.20;;;;;;5046188;28;20036;-69
2023/05/13 11:59:57;;;;;;;17.60;11.00;;;21.20;95.40;;;;;;5041756;28;20035;-69
2023/05/13 12:02:32;;;;;;;15.52;11.68;;;21.20;95.40;;;;;;5047475;28;20028;-69
2023/05/13 12:05:04;;;;;;;13.68;9.48;;;21.10;95.40;;;;;;5047574;28;20059;-70
2023/05/13 12:07:30;;;;;;;18.17;10.13;;;21.20;95.40;;;;;;5052120;28;20033;-69
2023/05/13 12:09:58;;;;;;;10.02;7.13;;;21.20;95.30;;;;;;5050449;28;20024;-70
2023/05/13 12:12:26;;;;;;;14.77;10.43;;;21.20;95.50;;;;;;5046993;28;20089;-70
2023/05/13 12:14:58;;;;;;;15.70;9.75;;;21.20;95.50;;;;;;5049774;28;20438;-69
2023/05/13 12:17:24;;;;;;;;;;;21.20;95.40;;;;;;5054096;28;20151;-69
2023/05/13 12:20:06;;;;;;;14.68;10.48;;;21.20;95.50;;;;;;5047092;28;20011;-70
2023/05/13 12:22:36;;;;;;;14.35;9.60;;;21.20;95.50;;;;;;5050989;28;20035;-69
2023/05/13 12:25:35;;;;;;;14.80;8.00;;;21.20;95.50;;;;;;5055472;28;20018;-71
2023/05/13 12:28:33;;;;;;;16.48;8.85;;;21.20;95.60;;;;;;5044555;28;20028;-70
2023/05/13 12:31:04;;;;;;;17.63;11.57;;;21.20;95.70;;;;;;5050208;28;20033;-70
2023/05/13 12:33:31;;;;;;;10.05;6.78;;;21.20;95.60;;;;;;5046295;28;20109;-70
2023/05/13 12:36:19;;;;;;;15.98;11.25;;;21.20;95.90;;;;;;5038719;28;20027;-70
2023/05/13 12:39:05;;;;;;;22.30;11.70;;;21.20;95.70;;;;;;5047796;28;20025;-70
2023/05/13 12:41:32;;;;;;;16.17;10.75;;;21.30;95.60;;;;;;5032040;28;20116;-70